sensor_id;sensor_type;location;lat;lon;timestamp;P1;durP1;ratioP1;P2;durP2;ratioP2
20870;SDS011;10595;51.218;3.452;2023-10-08T00:00:51;10.63;;;4.47;;
20870;SDS011;10595;51.218;3.452;2023-10-08T00:03:21;11.43;;;4.87;;
20870;SDS011;10595;51.218;3.452;2023-10-08T00:05:47;11.23;;;4.70;;
20870;SDS011;10595;51.218;3.452;2023-10-08T00:08:16;11.43;;;4.20;;
20870;SDS011;10595;51.218;3.452;2023-10-08T00:10:43;11.50;;;5.00;;
20870;SDS011;10595;51.218;3.452;2023-10-08T00:13:10;13.93;;;4.67;;
20870;SDS011;10595;51.218;3.452;2023-10-08T00:15:41;8.03;;;4.37;;
20870;SDS011;10595;51.218;3.452;2023-10-08T00:18:17;10.20;;;4.47;;
20870;SDS011;10595;51.218;3.452;2023-10-08T00:20:43;13.40;;;4.90;;
20870;SDS011;10595;51.218;3.452;2023-10-08T00:23:28;13.23;;;5.37;;
20870;SDS011;10595;51.218;3.452;2023-10-08T00:25:55;8.80;;;4.50;;
20870;SDS011;10595;51.218;3.452;2023-10-08T00:28:23;10.67;;;4.50;;
20870;SDS011;10595;51.218;3.452;2023-10-08T00:30:49;11.97;;;4.90;;
20870;SDS011;10595;51.218;3.452;2023-10-08T00:33:18;14.47;;;4.97;;
20870;SDS011;10595;51.218;3.452;2023-10-08T00:35:44;11.50;;;4.57;;
20870;SDS011;10595;51.218;3.452;2023-10-08T00:38:12;10.37;;;4.77;;
20870;SDS011;10595;51.218;3.452;2023-10-08T00:40:42;10.27;;;4.50;;
20870;SDS011;10595;51.218;3.452;2023-10-08T00:43:30;9.40;;;4.67;;
20870;SDS011;10595;51.218;3.452;2023-10-08T00:45:59;11.43;;;4.93;;
20870;SDS011;10595;51.218;3.452;2023-10-08T00:48:25;10.87;;;5.17;;
20870;SDS011;10595;51.218;3.452;2023-10-08T00:50:57;8.67;;;4.80;;
20870;SDS011;10595;51.218;3.452;2023-10-08T00:53:40;12.40;;;5.10;;
20870;SDS011;10595;51.218;3.452;2023-10-08T00:56:08;17.10;;;5.23;;
20870;SDS011;10595;51.218;3.452;2023-10-08T00:58:44;9.20;;;4.37;;
20870;SDS011;10595;51.218;3.452;2023-10-08T01:01:17;12.80;;;5.07;;
20870;SDS011;10595;51.218;3.452;2023-10-08T01:03:45;9.50;;;5.57;;
20870;SDS011;10595;51.218;3.452;2023-10-08T01:06:12;12.00;;;5.13;;
20870;SDS011;10595;51.218;3.452;2023-10-08T01:08:43;13.47;;;5.60;;
20870;SDS011;10595;51.218;3.452;2023-10-08T01:11:20;12.70;;;5.30;;
20870;SDS011;10595;51.218;3.452;2023-10-08T01:13:56;12.13;;;4.90;;
20870;SDS011;10595;51.218;3.452;2023-10-08T01:16:24;10.47;;;4.90;;
20870;SDS011;10595;51.218;3.452;2023-10-08T01:18:52;13.63;;;5.60;;
20870;SDS011;10595;51.218;3.452;2023-10-08T01:21:19;10.20;;;5.27;;
20870;SDS011;10595;51.218;3.452;2023-10-08T01:24:04;13.80;;;5.30;;
20870;SDS011;10595;51.218;3.452;2023-10-08T01:26:35;9.63;;;5.33;;
20870;SDS011;10595;51.218;3.452;2023-10-08T01:29:04;14.40;;;5.87;;
20870;SDS011;10595;51.218;3.452;2023-10-08T01:31:32;13.83;;;5.77;;
20870;SDS011;10595;51.218;3.452;2023-10-08T01:33:58;16.27;;;5.80;;
20870;SDS011;10595;51.218;3.452;2023-10-08T01:36:25;12.17;;;5.30;;
20870;SDS011;10595;51.218;3.452;2023-10-08T01:38:51;12.07;;;4.90;;
20870;SDS011;10595;51.218;3.452;2023-10-08T01:41:19;13.27;;;5.60;;
20870;SDS011;10595;51.218;3.452;2023-10-08T01:44:05;15.33;;;5.67;;
20870;SDS011;10595;51.218;3.452;2023-10-08T01:46:33;9.70;;;4.73;;
20870;SDS011;10595;51.218;3.452;2023-10-08T01:48:59;14.37;;;5.17;;
20870;SDS011;10595;51.218;3.452;2023-10-08T01:51:30;13.07;;;5.20;;
20870;SDS011;10595;51.218;3.452;2023-10-08T01:54:03;13.40;;;5.33;;
20870;SDS011;10595;51.218;3.452;2023-10-08T01:56:37;12.93;;;5.40;;
20870;SDS011;10595;51.218;3.452;2023-10-08T01:59:05;11.73;;;5.27;;
20870;SDS011;10595;51.218;3.452;2023-10-08T02:01:31;9.47;;;5.20;;
20870;SDS011;10595;51.218;3.452;2023-10-08T02:03:57;11.23;;;5.90;;
20870;SDS011;10595;51.218;3.452;2023-10-08T02:06:23;13.27;;;6.00;;
20870;SDS011;10595;51.218;3.452;2023-10-08T02:08:49;19.10;;;6.43;;
20870;SDS011;10595;51.218;3.452;2023-10-08T02:11:15;13.00;;;5.53;;
20870;SDS011;10595;51.218;3.452;2023-10-08T02:13:41;13.23;;;5.80;;
20870;SDS011;10595;51.218;3.452;2023-10-08T02:16:07;10.93;;;5.63;;
20870;SDS011;10595;51.218;3.452;2023-10-08T02:18:33;11.93;;;6.30;;
20870;SDS011;10595;51.218;3.452;2023-10-08T02:21:00;14.17;;;6.00;;
20870;SDS011;10595;51.218;3.452;2023-10-08T02:23:26;11.47;;;5.47;;
20870;SDS011;10595;51.218;3.452;2023-10-08T02:25:52;12.23;;;5.77;;
20870;SDS011;10595;51.218;3.452;2023-10-08T02:28:19;12.40;;;5.47;;
20870;SDS011;10595;51.218;3.452;2023-10-08T02:30:46;12.90;;;6.10;;
20870;SDS011;10595;51.218;3.452;2023-10-08T02:33:12;15.90;;;6.13;;
20870;SDS011;10595;51.218;3.452;2023-10-08T02:35:42;12.53;;;5.57;;
20870;SDS011;10595;51.218;3.452;2023-10-08T02:38:09;13.60;;;6.50;;
20870;SDS011;10595;51.218;3.452;2023-10-08T02:40:37;12.93;;;5.43;;
20870;SDS011;10595;51.218;3.452;2023-10-08T02:43:09;10.80;;;5.70;;
20870;SDS011;10595;51.218;3.452;2023-10-08T02:45:36;11.03;;;5.20;;
20870;SDS011;10595;51.218;3.452;2023-10-08T02:48:06;18.30;;;5.67;;
20870;SDS011;10595;51.218;3.452;2023-10-08T02:50:42;12.87;;;5.20;;
20870;SDS011;10595;51.218;3.452;2023-10-08T02:53:10;10.70;;;5.87;;
20870;SDS011;10595;51.218;3.452;2023-10-08T02:55:39;13.90;;;5.93;;
20870;SDS011;10595;51.218;3.452;2023-10-08T02:58:12;13.63;;;6.43;;
20870;SDS011;10595;51.218;3.452;2023-10-08T03:00:44;18.40;;;6.37;;
20870;SDS011;10595;51.218;3.452;2023-10-08T03:03:12;14.50;;;7.03;;
20870;SDS011;10595;51.218;3.452;2023-10-08T03:05:45;17.83;;;6.87;;
20870;SDS011;10595;51.218;3.452;2023-10-08T03:08:12;14.77;;;6.90;;
20870;SDS011;10595;51.218;3.452;2023-10-08T03:10:38;13.17;;;6.63;;
20870;SDS011;10595;51.218;3.452;2023-10-08T03:13:05;16.37;;;7.30;;
20870;SDS011;10595;51.218;3.452;2023-10-08T03:15:34;13.30;;;6.50;;
20870;SDS011;10595;51.218;3.452;2023-10-08T03:18:19;19.83;;;7.53;;
20870;SDS011;10595;51.218;3.452;2023-10-08T03:20:46;14.20;;;7.50;;
20870;SDS011;10595;51.218;3.452;2023-10-08T03:23:14;19.20;;;7.60;;
20870;SDS011;10595;51.218;3.452;2023-10-08T03:25:58;16.47;;;6.43;;
20870;SDS011;10595;51.218;3.452;2023-10-08T03:28:29;13.60;;;6.50;;
20870;SDS011;10595;51.218;3.452;2023-10-08T03:31:00;12.27;;;6.53;;
20870;SDS011;10595;51.218;3.452;2023-10-08T03:33:33;12.27;;;6.47;;
20870;SDS011;10595;51.218;3.452;2023-10-08T03:36:00;15.57;;;7.50;;
20870;SDS011;10595;51.218;3.452;2023-10-08T03:38:34;14.53;;;6.90;;
20870;SDS011;10595;51.218;3.452;2023-10-08T03:43:52;17.40;;;8.00;;
20870;SDS011;10595;51.218;3.452;2023-10-08T03:46:21;18.37;;;8.93;;
20870;SDS011;10595;51.218;3.452;2023-10-08T03:48:49;20.90;;;8.70;;
20870;SDS011;10595;51.218;3.452;2023-10-08T03:51:20;18.37;;;8.17;;
20870;SDS011;10595;51.218;3.452;2023-10-08T03:53:46;15.67;;;7.50;;
20870;SDS011;10595;51.218;3.452;2023-10-08T03:56:31;19.00;;;8.00;;
20870;SDS011;10595;51.218;3.452;2023-10-08T03:59:01;16.37;;;8.33;;
20870;SDS011;10595;51.218;3.452;2023-10-08T04:01:47;14.60;;;7.57;;
20870;SDS011;10595;51.218;3.452;2023-10-08T04:04:19;16.17;;;8.13;;
20870;SDS011;10595;51.218;3.452;2023-10-08T04:06:47;12.53;;;7.50;;
20870;SDS011;10595;51.218;3.452;2023-10-08T04:09:13;15.50;;;7.93;;
20870;SDS011;10595;51.218;3.452;2023-10-08T04:11:49;17.93;;;7.83;;
20870;SDS011;10595;51.218;3.452;2023-10-08T04:14:21;16.80;;;8.90;;
20870;SDS011;10595;51.218;3.452;2023-10-08T04:16:48;14.90;;;8.80;;
20870;SDS011;10595;51.218;3.452;2023-10-08T04:19:20;18.70;;;8.60;;
20870;SDS011;10595;51.218;3.452;2023-10-08T04:21:50;20.17;;;8.60;;
20870;SDS011;10595;51.218;3.452;2023-10-08T04:24:20;18.00;;;9.57;;
20870;SDS011;10595;51.218;3.452;2023-10-08T04:26:52;19.90;;;8.67;;
20870;SDS011;10595;51.218;3.452;2023-10-08T04:29:21;15.17;;;8.43;;
20870;SDS011;10595;51.218;3.452;2023-10-08T04:31:48;18.73;;;9.70;;
20870;SDS011;10595;51.218;3.452;2023-10-08T04:34:19;19.33;;;9.37;;
20870;SDS011;10595;51.218;3.452;2023-10-08T04:36:48;24.67;;;9.27;;
20870;SDS011;10595;51.218;3.452;2023-10-08T04:39:23;23.83;;;10.27;;
20870;SDS011;10595;51.218;3.452;2023-10-08T04:42:02;18.13;;;8.97;;
20870;SDS011;10595;51.218;3.452;2023-10-08T04:44:36;23.03;;;9.47;;
20870;SDS011;10595;51.218;3.452;2023-10-08T04:47:04;22.43;;;10.03;;
20870;SDS011;10595;51.218;3.452;2023-10-08T04:49:30;20.70;;;10.43;;
20870;SDS011;10595;51.218;3.452;2023-10-08T04:52:02;20.33;;;9.10;;
20870;SDS011;10595;51.218;3.452;2023-10-08T04:54:33;17.10;;;9.63;;
20870;SDS011;10595;51.218;3.452;2023-10-08T04:57:05;15.20;;;9.33;;
20870;SDS011;10595;51.218;3.452;2023-10-08T04:59:31;23.97;;;10.57;;
20870;SDS011;10595;51.218;3.452;2023-10-08T05:02:02;20.60;;;9.97;;
20870;SDS011;10595;51.218;3.452;2023-10-08T05:04:45;20.57;;;9.57;;
20870;SDS011;10595;51.218;3.452;2023-10-08T05:07:11;22.73;;;10.70;;
20870;SDS011;10595;51.218;3.452;2023-10-08T05:09:47;20.97;;;9.60;;
20870;SDS011;10595;51.218;3.452;2023-10-08T05:12:28;22.20;;;10.70;;
20870;SDS011;10595;51.218;3.452;2023-10-08T05:14:57;18.77;;;10.03;;
20870;SDS011;10595;51.218;3.452;2023-10-08T05:17:36;19.40;;;10.57;;
20870;SDS011;10595;51.218;3.452;2023-10-08T05:20:21;21.57;;;10.67;;
20870;SDS011;10595;51.218;3.452;2023-10-08T05:23:09;18.57;;;10.00;;
20870;SDS011;10595;51.218;3.452;2023-10-08T05:25:57;18.43;;;10.00;;
20870;SDS011;10595;51.218;3.452;2023-10-08T05:28:26;22.03;;;10.43;;
20870;SDS011;10595;51.218;3.452;2023-10-08T05:30:54;17.10;;;9.33;;
20870;SDS011;10595;51.218;3.452;2023-10-08T05:33:39;18.77;;;10.60;;
20870;SDS011;10595;51.218;3.452;2023-10-08T05:36:34;19.33;;;10.13;;
20870;SDS011;10595;51.218;3.452;2023-10-08T05:39:35;21.90;;;11.03;;
20870;SDS011;10595;51.218;3.452;2023-10-08T05:42:05;19.17;;;10.70;;
20870;SDS011;10595;51.218;3.452;2023-10-08T05:44:51;25.40;;;10.97;;
20870;SDS011;10595;51.218;3.452;2023-10-08T05:47:35;17.83;;;10.60;;
20870;SDS011;10595;51.218;3.452;2023-10-08T05:50:02;22.60;;;11.80;;
20870;SDS011;10595;51.218;3.452;2023-10-08T05:52:41;20.10;;;10.70;;
20870;SDS011;10595;51.218;3.452;2023-10-08T05:55:22;19.77;;;10.63;;
20870;SDS011;10595;51.218;3.452;2023-10-08T05:57:55;23.37;;;10.43;;
20870;SDS011;10595;51.218;3.452;2023-10-08T06:00:49;19.13;;;10.47;;
20870;SDS011;10595;51.218;3.452;2023-10-08T06:03:16;18.93;;;10.17;;
20870;SDS011;10595;51.218;3.452;2023-10-08T06:06:07;20.87;;;9.90;;
20870;SDS011;10595;51.218;3.452;2023-10-08T06:08:36;16.20;;;10.20;;
20870;SDS011;10595;51.218;3.452;2023-10-08T06:11:17;16.97;;;9.83;;
20870;SDS011;10595;51.218;3.452;2023-10-08T06:14:01;17.37;;;9.90;;
20870;SDS011;10595;51.218;3.452;2023-10-08T06:16:36;16.00;;;9.73;;
20870;SDS011;10595;51.218;3.452;2023-10-08T06:19:12;16.53;;;9.87;;
20870;SDS011;10595;51.218;3.452;2023-10-08T06:21:39;19.03;;;10.30;;
20870;SDS011;10595;51.218;3.452;2023-10-08T06:24:05;22.27;;;10.03;;
20870;SDS011;10595;51.218;3.452;2023-10-08T06:26:36;16.57;;;9.93;;
20870;SDS011;10595;51.218;3.452;2023-10-08T06:29:07;16.70;;;9.30;;
20870;SDS011;10595;51.218;3.452;2023-10-08T06:31:43;14.23;;;8.70;;
20870;SDS011;10595;51.218;3.452;2023-10-08T06:34:15;16.40;;;9.13;;
20870;SDS011;10595;51.218;3.452;2023-10-08T06:36:42;18.23;;;10.23;;
20870;SDS011;10595;51.218;3.452;2023-10-08T06:39:08;22.30;;;10.30;;
20870;SDS011;10595;51.218;3.452;2023-10-08T06:41:37;20.87;;;10.30;;
20870;SDS011;10595;51.218;3.452;2023-10-08T06:44:04;20.17;;;10.77;;
20870;SDS011;10595;51.218;3.452;2023-10-08T06:46:39;24.43;;;11.57;;
20870;SDS011;10595;51.218;3.452;2023-10-08T06:49:06;19.23;;;12.03;;
20870;SDS011;10595;51.218;3.452;2023-10-08T06:51:36;20.60;;;10.43;;
20870;SDS011;10595;51.218;3.452;2023-10-08T06:54:02;22.60;;;11.30;;
20870;SDS011;10595;51.218;3.452;2023-10-08T06:56:28;17.97;;;10.47;;
20870;SDS011;10595;51.218;3.452;2023-10-08T06:58:56;19.13;;;10.17;;
20870;SDS011;10595;51.218;3.452;2023-10-08T07:01:24;17.27;;;10.13;;
20870;SDS011;10595;51.218;3.452;2023-10-08T07:03:56;18.67;;;10.17;;
20870;SDS011;10595;51.218;3.452;2023-10-08T07:06:28;16.43;;;10.50;;
20870;SDS011;10595;51.218;3.452;2023-10-08T07:08:59;14.57;;;9.57;;
20870;SDS011;10595;51.218;3.452;2023-10-08T07:11:26;19.30;;;10.27;;
20870;SDS011;10595;51.218;3.452;2023-10-08T07:13:52;21.20;;;10.27;;
20870;SDS011;10595;51.218;3.452;2023-10-08T07:16:18;19.47;;;11.30;;
20870;SDS011;10595;51.218;3.452;2023-10-08T07:18:46;21.33;;;11.33;;
20870;SDS011;10595;51.218;3.452;2023-10-08T07:21:20;21.17;;;12.13;;
20870;SDS011;10595;51.218;3.452;2023-10-08T07:23:53;23.93;;;12.77;;
20870;SDS011;10595;51.218;3.452;2023-10-08T07:26:28;19.47;;;10.80;;
20870;SDS011;10595;51.218;3.452;2023-10-08T07:29:06;19.73;;;11.20;;
20870;SDS011;10595;51.218;3.452;2023-10-08T07:31:36;21.30;;;11.20;;
20870;SDS011;10595;51.218;3.452;2023-10-08T07:34:02;22.23;;;11.70;;
20870;SDS011;10595;51.218;3.452;2023-10-08T07:36:53;25.40;;;12.00;;
20870;SDS011;10595;51.218;3.452;2023-10-08T07:39:20;20.10;;;11.50;;
20870;SDS011;10595;51.218;3.452;2023-10-08T07:41:49;23.13;;;12.03;;
20870;SDS011;10595;51.218;3.452;2023-10-08T07:44:15;23.27;;;11.77;;
20870;SDS011;10595;51.218;3.452;2023-10-08T07:46:46;25.83;;;12.23;;
20870;SDS011;10595;51.218;3.452;2023-10-08T07:49:12;21.73;;;12.63;;
20870;SDS011;10595;51.218;3.452;2023-10-08T07:51:39;22.67;;;13.10;;
20870;SDS011;10595;51.218;3.452;2023-10-08T07:54:06;26.83;;;12.60;;
20870;SDS011;10595;51.218;3.452;2023-10-08T07:56:35;25.47;;;12.70;;
20870;SDS011;10595;51.218;3.452;2023-10-08T07:59:04;29.67;;;12.73;;
20870;SDS011;10595;51.218;3.452;2023-10-08T08:01:33;26.23;;;13.23;;
20870;SDS011;10595;51.218;3.452;2023-10-08T08:03:59;27.10;;;13.00;;
20870;SDS011;10595;51.218;3.452;2023-10-08T08:06:26;26.50;;;13.57;;
20870;SDS011;10595;51.218;3.452;2023-10-08T08:08:52;25.63;;;13.60;;
20870;SDS011;10595;51.218;3.452;2023-10-08T08:11:18;24.83;;;13.97;;
20870;SDS011;10595;51.218;3.452;2023-10-08T08:13:44;24.73;;;13.43;;
20870;SDS011;10595;51.218;3.452;2023-10-08T08:16:11;32.80;;;14.50;;
20870;SDS011;10595;51.218;3.452;2023-10-08T08:21:10;30.47;;;15.03;;
20870;SDS011;10595;51.218;3.452;2023-10-08T08:23:44;27.13;;;14.57;;
20870;SDS011;10595;51.218;3.452;2023-10-08T08:26:14;23.37;;;13.73;;
20870;SDS011;10595;51.218;3.452;2023-10-08T08:28:52;26.20;;;13.10;;
20870;SDS011;10595;51.218;3.452;2023-10-08T08:31:19;27.07;;;13.37;;
20870;SDS011;10595;51.218;3.452;2023-10-08T08:33:45;30.77;;;13.87;;
20870;SDS011;10595;51.218;3.452;2023-10-08T08:36:18;25.27;;;13.93;;
20870;SDS011;10595;51.218;3.452;2023-10-08T08:38:45;26.30;;;13.07;;
20870;SDS011;10595;51.218;3.452;2023-10-08T08:41:12;28.40;;;12.83;;
20870;SDS011;10595;51.218;3.452;2023-10-08T08:43:43;22.87;;;12.37;;
20870;SDS011;10595;51.218;3.452;2023-10-08T08:46:09;28.80;;;12.47;;
20870;SDS011;10595;51.218;3.452;2023-10-08T08:48:39;24.93;;;14.10;;
20870;SDS011;10595;51.218;3.452;2023-10-08T08:51:05;28.50;;;13.60;;
20870;SDS011;10595;51.218;3.452;2023-10-08T08:53:35;25.23;;;13.27;;
20870;SDS011;10595;51.218;3.452;2023-10-08T08:56:01;26.80;;;13.40;;
20870;SDS011;10595;51.218;3.452;2023-10-08T08:58:31;23.00;;;12.90;;
20870;SDS011;10595;51.218;3.452;2023-10-08T09:00:59;21.20;;;11.40;;
20870;SDS011;10595;51.218;3.452;2023-10-08T09:03:25;24.13;;;11.40;;
20870;SDS011;10595;51.218;3.452;2023-10-08T09:06:02;24.27;;;12.87;;
20870;SDS011;10595;51.218;3.452;2023-10-08T09:08:33;21.97;;;12.70;;
20870;SDS011;10595;51.218;3.452;2023-10-08T09:10:59;26.43;;;11.87;;
20870;SDS011;10595;51.218;3.452;2023-10-08T09:13:31;25.93;;;11.37;;
20870;SDS011;10595;51.218;3.452;2023-10-08T09:16:02;28.53;;;11.47;;
20870;SDS011;10595;51.218;3.452;2023-10-08T09:18:31;24.50;;;11.67;;
20870;SDS011;10595;51.218;3.452;2023-10-08T09:21:08;20.40;;;11.27;;
20870;SDS011;10595;51.218;3.452;2023-10-08T09:23:41;19.67;;;10.70;;
20870;SDS011;10595;51.218;3.452;2023-10-08T09:26:08;23.00;;;11.30;;
20870;SDS011;10595;51.218;3.452;2023-10-08T09:28:34;19.63;;;10.50;;
20870;SDS011;10595;51.218;3.452;2023-10-08T09:31:03;23.93;;;9.17;;
20870;SDS011;10595;51.218;3.452;2023-10-08T09:33:31;19.97;;;9.30;;
20870;SDS011;10595;51.218;3.452;2023-10-08T09:35:58;19.03;;;9.37;;
20870;SDS011;10595;51.218;3.452;2023-10-08T09:38:27;21.40;;;9.97;;
20870;SDS011;10595;51.218;3.452;2023-10-08T09:40:55;21.73;;;9.97;;
20870;SDS011;10595;51.218;3.452;2023-10-08T09:43:22;19.33;;;10.50;;
20870;SDS011;10595;51.218;3.452;2023-10-08T09:46:05;17.80;;;9.30;;
20870;SDS011;10595;51.218;3.452;2023-10-08T09:48:34;18.77;;;9.67;;
20870;SDS011;10595;51.218;3.452;2023-10-08T09:51:02;18.13;;;10.00;;
20870;SDS011;10595;51.218;3.452;2023-10-08T09:53:57;17.70;;;9.77;;
20870;SDS011;10595;51.218;3.452;2023-10-08T09:56:19;21.77;;;9.97;;
20870;SDS011;10595;51.218;3.452;2023-10-08T09:58:46;22.30;;;9.90;;
20870;SDS011;10595;51.218;3.452;2023-10-08T10:01:16;20.20;;;10.07;;
20870;SDS011;10595;51.218;3.452;2023-10-08T10:03:43;19.40;;;9.90;;
20870;SDS011;10595;51.218;3.452;2023-10-08T10:06:17;18.13;;;9.53;;
20870;SDS011;10595;51.218;3.452;2023-10-08T10:08:44;19.27;;;9.17;;
20870;SDS011;10595;51.218;3.452;2023-10-08T10:11:10;20.20;;;9.67;;
20870;SDS011;10595;51.218;3.452;2023-10-08T10:13:41;17.67;;;9.40;;
20870;SDS011;10595;51.218;3.452;2023-10-08T10:16:09;25.50;;;9.07;;
20870;SDS011;10595;51.218;3.452;2023-10-08T10:18:35;18.13;;;8.07;;
20870;SDS011;10595;51.218;3.452;2023-10-08T10:23:38;16.40;;;8.60;;
20870;SDS011;10595;51.218;3.452;2023-10-08T10:34:11;18.27;;;8.20;;
20870;SDS011;10595;51.218;3.452;2023-10-08T10:36:38;16.03;;;9.33;;
20870;SDS011;10595;51.218;3.452;2023-10-08T10:39:07;15.23;;;8.83;;
20870;SDS011;10595;51.218;3.452;2023-10-08T10:41:45;15.90;;;8.43;;
20870;SDS011;10595;51.218;3.452;2023-10-08T10:44:12;16.40;;;8.50;;
20870;SDS011;10595;51.218;3.452;2023-10-08T10:46:41;20.80;;;9.40;;
20870;SDS011;10595;51.218;3.452;2023-10-08T10:49:08;16.90;;;9.30;;
20870;SDS011;10595;51.218;3.452;2023-10-08T10:51:47;18.93;;;9.03;;
20870;SDS011;10595;51.218;3.452;2023-10-08T10:54:15;23.50;;;10.60;;
20870;SDS011;10595;51.218;3.452;2023-10-08T10:56:46;25.47;;;10.07;;
20870;SDS011;10595;51.218;3.452;2023-10-08T10:59:13;16.23;;;9.40;;
20870;SDS011;10595;51.218;3.452;2023-10-08T11:01:48;19.93;;;10.10;;
20870;SDS011;10595;51.218;3.452;2023-10-08T11:04:32;21.67;;;10.73;;
20870;SDS011;10595;51.218;3.452;2023-10-08T11:06:59;17.47;;;10.17;;
20870;SDS011;10595;51.218;3.452;2023-10-08T11:09:26;18.90;;;10.47;;
20870;SDS011;10595;51.218;3.452;2023-10-08T11:12:02;21.73;;;10.80;;
20870;SDS011;10595;51.218;3.452;2023-10-08T11:14:36;15.30;;;10.43;;
20870;SDS011;10595;51.218;3.452;2023-10-08T11:17:39;16.70;;;9.80;;
20870;SDS011;10595;51.218;3.452;2023-10-08T11:19:58;19.97;;;9.27;;
20870;SDS011;10595;51.218;3.452;2023-10-08T11:22:41;17.73;;;10.02;;
20870;SDS011;10595;51.218;3.452;2023-10-08T11:25:20;20.60;;;10.35;;
20870;SDS011;10595;51.218;3.452;2023-10-08T11:27:48;15.57;;;9.52;;
20870;SDS011;10595;51.218;3.452;2023-10-08T11:30:14;15.05;;;8.73;;
20870;SDS011;10595;51.218;3.452;2023-10-08T11:32:42;17.63;;;10.00;;
20870;SDS011;10595;51.218;3.452;2023-10-08T11:35:14;13.73;;;9.50;;
20870;SDS011;10595;51.218;3.452;2023-10-08T11:37:44;16.88;;;9.40;;
20870;SDS011;10595;51.218;3.452;2023-10-08T11:40:21;16.17;;;10.00;;
20870;SDS011;10595;51.218;3.452;2023-10-08T11:42:53;23.27;;;11.27;;
20870;SDS011;10595;51.218;3.452;2023-10-08T11:45:22;18.35;;;10.00;;
20870;SDS011;10595;51.218;3.452;2023-10-08T11:48:06;17.17;;;10.07;;
20870;SDS011;10595;51.218;3.452;2023-10-08T11:50:37;18.03;;;9.77;;
20870;SDS011;10595;51.218;3.452;2023-10-08T11:53:03;26.97;;;12.47;;
20870;SDS011;10595;51.218;3.452;2023-10-08T11:55:33;23.80;;;12.05;;
20870;SDS011;10595;51.218;3.452;2023-10-08T11:58:00;18.33;;;11.10;;
20870;SDS011;10595;51.218;3.452;2023-10-08T12:00:34;19.55;;;10.88;;
20870;SDS011;10595;51.218;3.452;2023-10-08T12:03:01;18.60;;;10.77;;
20870;SDS011;10595;51.218;3.452;2023-10-08T12:05:30;18.80;;;9.67;;
20870;SDS011;10595;51.218;3.452;2023-10-08T12:07:57;17.25;;;10.63;;
20870;SDS011;10595;51.218;3.452;2023-10-08T12:10:23;13.55;;;9.85;;
20870;SDS011;10595;51.218;3.452;2023-10-08T12:12:50;18.45;;;9.65;;
20870;SDS011;10595;51.218;3.452;2023-10-08T12:15:17;19.80;;;10.60;;
20870;SDS011;10595;51.218;3.452;2023-10-08T12:17:47;18.67;;;10.57;;
20870;SDS011;10595;51.218;3.452;2023-10-08T12:20:37;19.55;;;9.32;;
20870;SDS011;10595;51.218;3.452;2023-10-08T12:23:03;15.80;;;9.88;;
20870;SDS011;10595;51.218;3.452;2023-10-08T12:25:30;21.05;;;10.80;;
20870;SDS011;10595;51.218;3.452;2023-10-08T12:27:57;16.63;;;10.20;;
20870;SDS011;10595;51.218;3.452;2023-10-08T12:30:27;19.15;;;10.38;;
20870;SDS011;10595;51.218;3.452;2023-10-08T12:32:55;20.88;;;10.25;;
20870;SDS011;10595;51.218;3.452;2023-10-08T12:35:22;18.88;;;9.10;;
20870;SDS011;10595;51.218;3.452;2023-10-08T12:37:49;21.88;;;11.38;;
20870;SDS011;10595;51.218;3.452;2023-10-08T12:40:15;18.50;;;9.50;;
20870;SDS011;10595;51.218;3.452;2023-10-08T12:42:48;20.52;;;10.52;;
20870;SDS011;10595;51.218;3.452;2023-10-08T12:45:15;16.27;;;9.50;;
20870;SDS011;10595;51.218;3.452;2023-10-08T12:47:46;23.67;;;10.40;;
20870;SDS011;10595;51.218;3.452;2023-10-08T12:50:12;16.83;;;10.23;;
20870;SDS011;10595;51.218;3.452;2023-10-08T12:52:41;16.88;;;9.35;;
20870;SDS011;10595;51.218;3.452;2023-10-08T12:55:12;18.50;;;9.35;;
20870;SDS011;10595;51.218;3.452;2023-10-08T12:57:38;16.52;;;8.68;;
20870;SDS011;10595;51.218;3.452;2023-10-08T13:00:05;19.20;;;9.43;;
20870;SDS011;10595;51.218;3.452;2023-10-08T13:02:33;16.35;;;9.30;;
20870;SDS011;10595;51.218;3.452;2023-10-08T13:05:04;16.85;;;9.30;;
20870;SDS011;10595;51.218;3.452;2023-10-08T13:07:40;16.23;;;9.90;;
20870;SDS011;10595;51.218;3.452;2023-10-08T13:10:08;15.68;;;8.98;;
20870;SDS011;10595;51.218;3.452;2023-10-08T13:12:39;20.27;;;9.45;;
20870;SDS011;10595;51.218;3.452;2023-10-08T13:15:06;18.70;;;9.10;;
20870;SDS011;10595;51.218;3.452;2023-10-08T13:17:32;15.57;;;9.38;;
20870;SDS011;10595;51.218;3.452;2023-10-08T13:19:58;15.98;;;8.90;;
20870;SDS011;10595;51.218;3.452;2023-10-08T13:22:24;16.05;;;8.65;;
20870;SDS011;10595;51.218;3.452;2023-10-08T13:24:52;14.18;;;9.15;;
20870;SDS011;10595;51.218;3.452;2023-10-08T13:27:18;15.80;;;8.63;;
20870;SDS011;10595;51.218;3.452;2023-10-08T13:29:44;17.90;;;8.80;;
20870;SDS011;10595;51.218;3.452;2023-10-08T13:32:10;15.57;;;8.63;;
20870;SDS011;10595;51.218;3.452;2023-10-08T13:34:42;16.00;;;8.73;;
20870;SDS011;10595;51.218;3.452;2023-10-08T13:37:08;17.48;;;9.25;;
20870;SDS011;10595;51.218;3.452;2023-10-08T13:39:34;14.98;;;8.52;;
20870;SDS011;10595;51.218;3.452;2023-10-08T13:42:00;16.70;;;9.18;;
20870;SDS011;10595;51.218;3.452;2023-10-08T13:44:28;14.98;;;8.70;;
20870;SDS011;10595;51.218;3.452;2023-10-08T13:46:54;17.33;;;8.85;;
20870;SDS011;10595;51.218;3.452;2023-10-08T13:49:23;13.57;;;8.25;;
20870;SDS011;10595;51.218;3.452;2023-10-08T13:51:51;18.90;;;8.20;;
20870;SDS011;10595;51.218;3.452;2023-10-08T13:54:24;17.75;;;8.55;;
20870;SDS011;10595;51.218;3.452;2023-10-08T13:57:00;12.88;;;7.72;;
20870;SDS011;10595;51.218;3.452;2023-10-08T13:59:27;15.38;;;7.53;;
20870;SDS011;10595;51.218;3.452;2023-10-08T14:01:56;13.63;;;7.55;;
20870;SDS011;10595;51.218;3.452;2023-10-08T14:04:22;14.10;;;7.88;;
20870;SDS011;10595;51.218;3.452;2023-10-08T14:07:04;15.80;;;7.40;;
20870;SDS011;10595;51.218;3.452;2023-10-08T14:09:30;17.55;;;8.50;;
20870;SDS011;10595;51.218;3.452;2023-10-08T14:12:01;18.85;;;8.90;;
20870;SDS011;10595;51.218;3.452;2023-10-08T14:14:27;20.00;;;8.77;;
20870;SDS011;10595;51.218;3.452;2023-10-08T14:16:55;14.93;;;8.00;;
20870;SDS011;10595;51.218;3.452;2023-10-08T14:19:25;13.32;;;6.75;;
20870;SDS011;10595;51.218;3.452;2023-10-08T14:22:01;14.90;;;7.43;;
20870;SDS011;10595;51.218;3.452;2023-10-08T14:24:34;17.23;;;8.27;;
20870;SDS011;10595;51.218;3.452;2023-10-08T14:27:03;15.30;;;7.80;;
20870;SDS011;10595;51.218;3.452;2023-10-08T14:29:35;13.63;;;7.60;;
20870;SDS011;10595;51.218;3.452;2023-10-08T14:32:01;13.60;;;7.18;;
20870;SDS011;10595;51.218;3.452;2023-10-08T14:34:33;15.07;;;7.07;;
20870;SDS011;10595;51.218;3.452;2023-10-08T14:37:11;14.60;;;7.55;;
20870;SDS011;10595;51.218;3.452;2023-10-08T14:39:56;14.07;;;7.53;;
20870;SDS011;10595;51.218;3.452;2023-10-08T14:42:41;11.52;;;6.78;;
20870;SDS011;10595;51.218;3.452;2023-10-08T14:45:30;15.13;;;7.80;;
20870;SDS011;10595;51.218;3.452;2023-10-08T14:47:57;14.27;;;6.95;;
20870;SDS011;10595;51.218;3.452;2023-10-08T14:50:23;12.77;;;6.80;;
20870;SDS011;10595;51.218;3.452;2023-10-08T14:52:52;14.45;;;7.13;;
20870;SDS011;10595;51.218;3.452;2023-10-08T14:55:18;17.40;;;7.43;;
20870;SDS011;10595;51.218;3.452;2023-10-08T14:57:47;14.63;;;7.25;;
20870;SDS011;10595;51.218;3.452;2023-10-08T15:00:13;12.73;;;7.03;;
20870;SDS011;10595;51.218;3.452;2023-10-08T15:02:39;14.07;;;6.95;;
20870;SDS011;10595;51.218;3.452;2023-10-08T15:05:05;12.85;;;6.80;;
20870;SDS011;10595;51.218;3.452;2023-10-08T15:07:34;12.50;;;7.07;;